• Join FlightAware (Why Join?)
  • Login
  • US Flag 
02:21AM EST


 

Airport Tracker/Info


-or-


 

Live Flight TrackerFlight Track Log ✈ AAL963 ✈ 22-Jun-2013 ✈ KDFW - SBGR / GRU

Flight Track Log - Related Links

Times and Time Zones

All times are in EDT time to prevent confusion due to time zone crossing. See the AAL963 flight status page for this flight to view local times or setup timezone preferences in your user account.

Time Position Orientation Groundspeed Altitude Reporting Facility
EDT Latitude Longitude Course Direction KTS MPH feet Rate Location/Type
09:29PM 32.8190 -97.0140 164° South 211 243 2,800  Level FlightAware
09:29PM 32.7890 -97.0050 166° South 235 270 3,400 1,560 Climbing FlightAware
09:30PM 32.7590 -96.9940 163° South 239 275 4,300 1,560 Climbing FlightAware
09:30PM 32.7290 -96.9820 161° South 259 298 4,900 1,800 Climbing FlightAware
09:31PM 32.6960 -96.9700 163° South 258 297 6,000 2,160 Climbing FlightAware
09:31PM 32.6640 -96.9580 162° South 263 303 7,000 1,980 Climbing FlightAware
09:31PM 32.6310 -96.9450 162° South 270 311 7,900 1,800 Climbing FlightAware
09:32PM 32.5980 -96.9320 162° South 275 316 8,700 1,560 Climbing FlightAware
09:32PM 32.5670 -96.9210 163° South 285 328 9,300 1,560 Climbing FlightAware
09:33PM 32.5100 -96.9000 163° South 302 348 10,500 1,380 Climbing FlightAware
09:34PM 32.4580 -96.8800 162° South 325 374 11,200 1,020 Climbing FlightAware
09:34PM 32.3910 -96.8540 162° South 357 411 11,900 1,080 Climbing FlightAware
09:35PM 32.3190 -96.8280 163° South 382 440 12,800 1,440 Climbing FlightAware
09:36PM 32.2440 -96.8000 162° South 394 453 14,000 1,560 Climbing FlightAware
09:37PM 32.1730 -96.7730 162° South 406 467 15,000 1,680 Climbing FlightAware
09:37PM 32.1105 -96.7493 162° South 16,100 1,800 Climbing FlightAware ADS-B
09:38PM 32.0476 -96.7260 163° South 416 479 17,100 1,680 Climbing FlightAware ADS-B
09:38PM 31.9812 -96.7010 162° South 418 481 18,100 1,380 Climbing FlightAware ADS-B
09:39PM 31.9067 -96.6722 162° South 430 495 18,900 1,020 Climbing FlightAware ADS-B
09:39PM 31.8533 -96.6510 161° South 446 513 19,300 1,260 Climbing FlightAware ADS-B
09:40PM 31.7812 -96.6207 160° South 451 519 20,300 1,620 Climbing FlightAware ADS-B
09:41PM 31.7201 -96.5956 161° South 454 522 21,200 1,620 Climbing FlightAware ADS-B
09:41PM 31.6591 -96.5707 161° South 456 525 22,000 1,500 Climbing FlightAware ADS-B
09:42PM 31.5992 -96.5464 161° South 458 527 22,700 1,440 Climbing FlightAware ADS-B
09:42PM 31.5352 -96.5205 161° South 461 531 23,500 1,320 Climbing FlightAware ADS-B
09:43PM 31.4724 -96.4959 162° South 467 537 24,100 1,140 Climbing FlightAware ADS-B
09:43PM 31.4087 -96.4725 163° South 472 543 24,700 1,080 Climbing FlightAware ADS-B
09:44PM 31.2805 -96.4251 162° South 480 552 25,800 1,080 Climbing FlightAware ADS-B
09:45PM 31.2228 -96.4035 162° South 484 557 26,300 1,080 Climbing FlightAware ADS-B
09:45PM 31.1868 -96.3844 153° Southeast 489 563 26,600 1,080 Climbing FlightAware ADS-B
09:45PM 31.1586 -96.3611 145° Southeast 492 566 26,900 1,080 Climbing FlightAware ADS-B
09:45PM 31.1399 -96.3398 136° Southeast 493 567 27,100 1,080 Climbing FlightAware ADS-B
09:45PM 31.1336 -96.3310 130° Southeast 494 568 27,200 840 Climbing FlightAware ADS-B
09:46PM 31.0930 -96.2658 126° Southeast 498 573 27,600 960 Climbing FlightAware ADS-B
09:46PM 31.0522 -96.1989 125° Southeast 501 577 28,200 960 Climbing FlightAware ADS-B
09:47PM 30.9701 -96.0648 126° Southeast 508 585 29,100 840 Climbing FlightAware ADS-B
09:48PM 30.9288 -95.9979 126° Southeast 512 589 29,500 780 Climbing FlightAware ADS-B
09:48PM 30.8870 -95.9302 126° Southeast 515 593 29,900 1,020 Climbing FlightAware ADS-B
09:50PM 30.7180 -95.6586 126° Southeast 511 588 32,100 1,080 Climbing FlightAware ADS-B
09:51PM 30.6733 -95.5872 126° Southeast 508 585 32,700 840 Climbing FlightAware ADS-B
09:52PM 30.6288 -95.5159 126° Southeast 507 583 33,000 180 Climbing FlightAware ADS-B
09:53PM 30.5462 -95.3840 126° Southeast 505 581 33,000  Level FlightAware ADS-B
09:53PM 30.5047 -95.3181 126° Southeast 506 582 33,000  Level FlightAware ADS-B
09:57PM 30.2090 -94.8505 126° Southeast 512 589 33,000  Level FlightAware ADS-B
09:57PM 30.1668 -94.7842 126° Southeast 512 589 33,000  Level FlightAware ADS-B
09:58PM 30.1242 -94.7174 126° Southeast 511 588 33,000  Level FlightAware ADS-B
09:58PM 30.0823 -94.6519 126° Southeast 510 587 33,000  Level FlightAware ADS-B
09:59PM 30.0397 -94.5853 126° Southeast 511 588 33,000  Level FlightAware ADS-B
10:00PM 29.9541 -94.4519 126° Southeast 512 589 33,000  Level FlightAware ADS-B
10:00PM 29.9105 -94.3840 127° Southeast 512 589 33,000  Level FlightAware ADS-B
10:01PM 29.8253 -94.2520 127° Southeast 512 589 33,000  Level FlightAware ADS-B
10:02PM 29.7825 -94.1859 127° Southeast 511 588 33,000  Level FlightAware ADS-B
10:02PM 29.7358 -94.1136 127° Southeast 510 587 33,000  Level FlightAware ADS-B
10:03PM 29.6716 -94.0285 133° Southeast 510 587 33,000  Level FlightAware ADS-B
10:03PM 29.6112 -93.9724 141° Southeast 508 585 33,000  Level FlightAware ADS-B
10:04PM 29.5231 -93.8972 143° Southeast 507 583 33,000  Level FlightAware ADS-B
10:05PM 29.4582 -93.8423 144° Southeast 505 581 33,000  Level FlightAware ADS-B
10:05PM 29.4016 -93.7943 144° Southeast 505 581 33,000  Level FlightAware ADS-B
10:06PM 29.3373 -93.7398 144° Southeast 505 581 33,000  Level FlightAware ADS-B
10:06PM 29.2793 -93.6904 143° Southeast 504 580 33,000  Level FlightAware ADS-B
10:07PM 29.2222 -93.6420 144° Southeast 505 581 33,000  Level FlightAware ADS-B
10:07PM 29.1646 -93.5932 144° Southeast 505 581 33,000  Level FlightAware ADS-B
10:08PM 29.1068 -93.5443 144° Southeast 505 581 33,000  Level FlightAware ADS-B
10:08PM 29.0499 -93.4961 143° Southeast 506 582 33,000  Level FlightAware ADS-B
10:09PM 28.9922 -93.4474 144° Southeast 506 582 33,000  Level FlightAware ADS-B
10:09PM 28.9353 -93.3996 144° Southeast 508 585 33,000 -120 Level FlightAware ADS-B
10:10PM 28.8625 -93.3375 144° Southeast 506 582 32,900  Descending Houston Center
10:11PM 28.7489 -93.2417 144° Southeast 508 585 33,000  Climbing Houston Center
10:12PM 28.6347 -93.1478 144° Southeast 508 585 33,000 -60 Level Houston Center
10:13PM 28.5214 -93.0517 143° Southeast 507 583 32,900 -60 Descending Houston Center
10:14PM 28.3850 -92.9369 143° Southeast 508 585 32,900  Level Houston Center
10:15PM 28.2703 -92.8411 144° Southeast 512 589 33,000  Climbing Houston Center
10:16PM 28.1558 -92.7475 144° Southeast 510 587 32,900  Descending Houston Center
10:17PM 28.0400 -92.6531 144° Southeast 512 589 33,000  Climbing Houston Center
10:18PM 27.9264 -92.5581 144° Southeast 509 586 33,000 -60 Level Houston Center
10:19PM 27.8122 -92.4622 143° Southeast 512 589 32,900  Descending Houston Center
10:20PM 27.6944 -92.3722 146° Southeast 511 588 33,000  Climbing Houston Center
10:21PM 27.5808 -92.2772 143° Southeast 509 586 33,000 -60 Level Houston Center
10:22PM 27.4656 -92.1850 145° Southeast 507 583 32,900 -60 Descending Houston Center
10:23PM 27.3503 -92.0922 144° Southeast 509 586 32,900  Level Houston Center
10:24PM 27.2356 -91.9975 144° Southeast 512 589 32,900  Level Houston Center
10:25PM 27.1206 -91.9053 144° Southeast 510 587 33,000  Climbing Houston Center
10:26PM 27.0050 -91.8136 145° Southeast 508 585 33,000  Level Houston Center
10:28PM 26.8904 -91.7203 144° Southeast  Level FlightAware Approximate
10:35PM 26.1337 -91.1183 146° Southeast  Level FlightAware Approximate
10:36PM 26.0241 -91.0350 146° Southeast  Level FlightAware Approximate
10:37PM 25.9160 -90.9493 144° Southeast  Level FlightAware Approximate
10:38PM 25.8084 -90.8631 144° Southeast  Level FlightAware Approximate
10:39PM 25.7006 -90.7771 144° Southeast  Level FlightAware Approximate
10:40PM 25.5914 -90.6934 146° Southeast  Level FlightAware Approximate
10:41PM 25.4815 -90.6109 146° Southeast  Level FlightAware Approximate
10:42PM 25.3716 -90.5286 146° Southeast  Level FlightAware Approximate
10:43PM 25.2628 -90.4445 145° Southeast  Level FlightAware Approximate
10:44PM 25.1546 -90.3596 145° Southeast  Level FlightAware Approximate
10:45PM 25.0463 -90.2749 145° Southeast  Level FlightAware Approximate
10:46PM 24.9380 -90.1903 145° Southeast  Level FlightAware Approximate
10:47PM 24.8296 -90.1058 145° Southeast  Level FlightAware Approximate
10:48PM 24.7212 -90.0215 145° Southeast  Level FlightAware Approximate
10:49PM 24.6128 -89.9373 145° Southeast  Level FlightAware Approximate
10:50PM 24.5042 -89.8533 145° Southeast  Level FlightAware Approximate
10:51PM 24.4067 -89.7545 137° Southeast  Level FlightAware Approximate
10:51PM 24.2300 -89.6470 137° Southeast 505 581 33,000  Level FlightAware
10:52PM 24.1580 -89.5920 145° Southeast 506 582 33,000  Level FlightAware
10:52PM 24.0750 -89.5300 146° Southeast 506 582 33,000  Level FlightAware
10:53PM 24.0040 -89.4770 146° Southeast 507 583 33,000  Level FlightAware
10:54PM 23.9310 -89.4220 145° Southeast 507 583 33,000  Level FlightAware
10:55PM 23.8210 -89.3390 145° Southeast 507 583 33,000  Level FlightAware
10:55PM 23.7400 -89.2780 145° Southeast 507 583 33,000  Level FlightAware
10:56PM 23.6670 -89.2230 145° Southeast 507 583 33,000  Level FlightAware
10:57PM 23.5940 -89.1690 146° Southeast 508 585 33,000  Level FlightAware
10:57PM 23.5060 -89.1030 145° Southeast 509 586 33,000  Level FlightAware
10:58PM 23.4110 -89.0320 146° Southeast 509 586 33,000  Level FlightAware
10:59PM 23.3490 -88.9860 146° Southeast 507 583 33,000  Level FlightAware
11:00PM 23.2590 -88.9180 145° Southeast 507 583 33,000  Level FlightAware
11:00PM 23.1840 -88.8620 146° Southeast 507 583 33,000  Level FlightAware
11:01PM 23.0970 -88.7980 146° Southeast 507 583 33,000  Level FlightAware
11:02PM 23.0160 -88.7380 146° Southeast 507 583 33,000  Level FlightAware
11:02PM 22.9360 -88.6790 146° Southeast 506 582 33,000  Level FlightAware
11:03PM 22.8590 -88.6220 146° Southeast 505 581 33,000  Level FlightAware
11:04PM 22.7810 -88.5650 146° Southeast 506 582 33,000  Level FlightAware
11:04PM 22.6870 -88.4950 146° Southeast 505 581 33,000  Level FlightAware
11:05PM 22.6180 -88.4430 145° Southeast 507 583 33,000  Level FlightAware
11:06PM 22.5390 -88.3700 140° Southeast 505 581 33,000  Level FlightAware
11:07PM 22.4630 -88.2930 137° Southeast 505 581 33,000  Level FlightAware
11:07PM 22.3940 -88.2220 136° Southeast 506 582 33,000  Level FlightAware
11:08PM 22.3250 -88.1520 137° Southeast 505 581 33,000  Level FlightAware
11:09PM 22.2490 -88.0760 137° Southeast 505 581 33,000 300 Level FlightAware
11:09PM 22.1870 -88.0130 137° Southeast 502 578 33,400 660 Climbing FlightAware
11:10PM 22.1120 -87.9370 137° Southeast 503 579 33,900 780 Climbing FlightAware
11:11PM 22.0130 -87.8380 137° Southeast 503 579 34,800 600 Climbing FlightAware
11:12PM 21.9400 -87.7630 136° Southeast 502 578 35,000 120 Climbing FlightAware
11:12PM 21.8810 -87.7040 137° Southeast 500 575 35,000  Level FlightAware
11:13PM 21.7900 -87.6130 137° Southeast 499 574 35,000  Level FlightAware
11:14PM 21.7090 -87.5330 137° Southeast 498 573 35,000  Level FlightAware
11:15PM 21.6470 -87.4720 138° Southeast 498 573 35,000  Level FlightAware
11:15PM 21.5020 -87.3280 137° Southeast 497 572 35,000  Level FlightAware
11:16PM 21.4340 -87.2610 137° Southeast 499 574 35,000  Level FlightAware
11:17PM 21.3640 -87.1910 137° Southeast 499 574 35,000  Level FlightAware
11:17PM 21.2960 -87.1250 138° Southeast 501 577 35,000  Level FlightAware
11:18PM 21.2190 -87.0490 137° Southeast 501 577 35,000  Level FlightAware
11:19PM 21.1470 -86.9790 138° Southeast 503 579 35,000  Level FlightAware
11:20PM 21.0710 -86.9040 137° Southeast 503 579 35,000  Level FlightAware
11:20PM 21.0030 -86.8370 137° Southeast 504 580 35,000  Level FlightAware
11:21PM 20.9310 -86.7680 138° Southeast 505 581 35,000  Level FlightAware
11:22PM 20.8540 -86.6930 138° Southeast 506 582 35,000  Level FlightAware
11:22PM 20.7880 -86.6290 138° Southeast 506 582 35,000  Level FlightAware
11:23PM 20.7100 -86.5530 138° Southeast 506 582 35,000  Level FlightAware
11:24PM 20.6420 -86.4870 138° Southeast 506 582 35,000  Level FlightAware
11:24PM 20.5710 -86.4190 138° Southeast 505 581 35,000  Level FlightAware
11:25PM 20.5210 -86.3700 137° Southeast 504 580 35,000  Level FlightAware
11:26PM 20.4550 -86.3060 138° Southeast 503 579 35,000  Level FlightAware
11:27PM 20.3860 -86.2360 136° Southeast 503 579 35,000  Level FlightAware
11:27PM 20.4670 -86.3180 317° Northwest 35,000  Level FlightAware
11:28PM 20.1790 -86.0420 138° Southeast 501 577 35,000  Level FlightAware
11:29PM 20.1030 -85.9690 138° Southeast 500 575 35,000  Level FlightAware
11:30PM 20.0310 -85.9000 138° Southeast 499 574 35,000  Level FlightAware
11:30PM 19.9620 -85.8350 138° Southeast 497 572 35,000  Level FlightAware
11:31PM 19.8850 -85.7620 138° Southeast 498 573 35,000  Level FlightAware
11:32PM 19.8090 -85.6910 139° Southeast 498 573 35,000  Level FlightAware
11:33PM 19.7380 -85.6240 138° Southeast 498 573 35,000  Level FlightAware
11:33PM 19.6540 -85.5440 138° Southeast 498 573 35,000  Level FlightAware
11:34PM 19.6020 -85.4940 138° Southeast 498 573 35,000  Level FlightAware
11:35PM 19.5000 -85.4040 140° Southeast 499 574 35,000  Level FlightAware
11:36PM 19.4110 -85.3470 149° Southeast 499 574 35,000  Level FlightAware
11:37PM 19.2810 -85.2720 151° Southeast 500 575 35,000  Level FlightAware
11:37PM 19.1940 -85.2230 152° Southeast 500 575 35,000  Level FlightAware
11:38PM 19.1100 -85.1730 151° Southeast 500 575 35,000  Level FlightAware
11:39PM 19.0460 -85.1360 151° Southeast 500 575 35,000  Level FlightAware
11:39PM 18.9630 -85.0880 151° Southeast 500 575 35,000  Level FlightAware
11:40PM 18.8630 -85.0310 152° Southeast 498 573 35,000  Level FlightAware
11:41PM 18.7780 -84.9810 151° Southeast 498 573 35,000  Level FlightAware
11:42PM 18.7140 -84.9440 151° Southeast 498 573 35,000  Level FlightAware
11:42PM 18.6320 -84.8960 151° Southeast 498 573 35,000  Level FlightAware
11:43PM 18.5690 -84.8590 151° Southeast 498 573 35,000  Level FlightAware
11:44PM 18.4900 -84.8130 151° Southeast 498 573 35,000  Level FlightAware
11:44PM 18.4280 -84.7770 151° Southeast 498 573 35,000  Level FlightAware
11:45PM 18.3460 -84.7290 151° Southeast 498 573 35,000  Level FlightAware
11:46PM 18.2840 -84.6930 151° Southeast 498 573 35,000  Level FlightAware
11:46PM 18.2020 -84.6450 151° Southeast 498 573 35,000  Level FlightAware
11:47PM 18.1400 -84.6090 151° Southeast 498 573 35,000  Level FlightAware
11:48PM 18.0580 -84.5610 151° Southeast 498 573 35,000  Level FlightAware
11:49PM 17.9950 -84.5240 151° Southeast 498 573 35,000  Level FlightAware
11:49PM 17.9130 -84.4760 151° Southeast 498 573 35,000  Level FlightAware
11:50PM 17.8510 -84.4400 151° Southeast 498 573 35,000  Level FlightAware
11:53PM 17.5995 -84.1920 137° Southeast  Level Estimated
11:54PM 17.5027 -84.0968 137° Southeast  Level Estimated
11:55PM 17.4058 -84.0017 137° Southeast  Level Estimated
11:56PM 17.3089 -83.9067 137° Southeast  Level Estimated
11:57PM 17.2119 -83.8118 137° Southeast  Level Estimated
11:58PM 17.1149 -83.7170 137° Southeast  Level Estimated
11:59PM 17.0179 -83.6223 137° Southeast  Level Estimated
12:00AM 16.9208 -83.5277 137° Southeast  Level Estimated
12:01AM 16.8237 -83.4332 137° Southeast  Level Estimated
12:02AM 16.7265 -83.3388 137° Southeast  Level Estimated
12:03AM 16.6293 -83.2445 137° Southeast  Level Estimated
12:04AM 16.5320 -83.1502 137° Southeast  Level Estimated
12:05AM 16.4347 -83.0561 137° Southeast  Level Estimated
12:06AM 16.3374 -82.9621 137° Southeast  Level Estimated
12:07AM 16.2400 -82.8681 137° Southeast  Level Estimated
12:08AM 16.1425 -82.7743 137° Southeast  Level Estimated
12:09AM 16.0451 -82.6805 137° Southeast  Level Estimated
12:10AM 15.9476 -82.5869 137° Southeast  Level Estimated
12:11AM 15.8500 -82.4933 137° Southeast  Level Estimated
12:12AM 15.7524 -82.3998 137° Southeast  Level Estimated
12:13AM 15.6548 -82.3064 137° Southeast  Level Estimated
12:14AM 15.5571 -82.2132 137° Southeast  Level Estimated
12:15AM 15.4594 -82.1199 137° Southeast  Level Estimated
12:16AM 15.3617 -82.0268 137° Southeast  Level Estimated
12:17AM 15.2639 -81.9338 137° Southeast  Level Estimated
12:18AM 15.1661 -81.8408 137° Southeast  Level Estimated
12:19AM 15.0682 -81.7480 137° Southeast  Level Estimated
12:20AM 14.9703 -81.6552 138° Southeast  Level Estimated
12:21AM 14.8724 -81.5625 138° Southeast  Level Estimated
12:22AM 14.7753 -81.4707 138° Southeast  Level Estimated
12:23AM 14.6781 -81.3790 138° Southeast  Level Estimated
12:24AM 14.5809 -81.2874 138° Southeast  Level Estimated
12:25AM 14.4837 -81.1958 138° Southeast  Level Estimated
12:26AM 14.3864 -81.1043 138° Southeast  Level Estimated
12:27AM 14.2892 -81.0130 138° Southeast  Level Estimated
12:28AM 14.1918 -80.9217 138° Southeast  Level Estimated
12:29AM 14.0945 -80.8304 138° Southeast  Level Estimated
12:30AM 13.9971 -80.7393 138° Southeast  Level Estimated
12:31AM 13.8997 -80.6482 138° Southeast  Level Estimated
12:32AM 13.8022 -80.5572 138° Southeast  Level Estimated
12:33AM 13.7047 -80.4663 138° Southeast  Level Estimated
12:34AM 13.6072 -80.3754 138° Southeast  Level Estimated
12:35AM 13.5096 -80.2847 138° Southeast  Level Estimated
12:36AM 13.4120 -80.1939 138° Southeast  Level Estimated
12:37AM 13.3144 -80.1033 138° Southeast  Level Estimated
12:38AM 13.2168 -80.0128 138° Southeast  Level Estimated
12:39AM 13.1191 -79.9223 138° Southeast  Level Estimated
12:40AM 13.0213 -79.8319 138° Southeast  Level Estimated
12:41AM 12.9236 -79.7415 138° Southeast  Level Estimated
12:42AM 12.8258 -79.6513 138° Southeast  Level Estimated
12:43AM 12.7280 -79.5611 138° Southeast  Level Estimated
12:44AM 12.6302 -79.4710 138° Southeast  Level Estimated
12:45AM 12.5323 -79.3809 138° Southeast  Level Estimated
12:46AM 12.4344 -79.2909 138° Southeast  Level Estimated
12:47AM 12.3365 -79.2010 138° Southeast  Level Estimated
12:48AM 12.2385 -79.1111 138° Southeast  Level Estimated
12:49AM 12.1405 -79.0213 138° Southeast  Level Estimated
12:50AM 12.0425 -78.9316 138° Southeast  Level Estimated
12:51AM 11.9444 -78.8420 138° Southeast  Level Estimated
12:52AM 11.8464 -78.7524 138° Southeast  Level Estimated
12:53AM 11.7483 -78.6629 138° Southeast  Level Estimated
12:54AM 11.6501 -78.5734 138° Southeast  Level Estimated
12:55AM 11.5520 -78.4840 138° Southeast  Level Estimated
12:56AM 11.4538 -78.3947 138° Southeast  Level Estimated
12:57AM 11.3555 -78.3054 138° Southeast  Level Estimated
12:58AM 11.2573 -78.2162 138° Southeast  Level Estimated
12:59AM 11.1590 -78.1270 138° Southeast  Level Estimated
01:00AM 11.0607 -78.0379 138° Southeast  Level Estimated
01:01AM 10.9624 -77.9489 138° Southeast  Level Estimated
01:02AM 10.8641 -77.8599 138° Southeast  Level Estimated
01:03AM 10.7657 -77.7710 138° Southeast  Level Estimated
01:04AM 10.6673 -77.6822 138° Southeast  Level Estimated
01:05AM 10.5689 -77.5934 138° Southeast  Level Estimated
01:06AM 10.4704 -77.5046 138° Southeast  Level Estimated
01:07AM 10.3720 -77.4159 138° Southeast  Level Estimated
01:08AM 10.2735 -77.3273 138° Southeast  Level Estimated
01:09AM 10.1749 -77.2387 138° Southeast  Level Estimated
01:10AM 10.0764 -77.1502 139° Southeast  Level Estimated
01:11AM 9.9778 -77.0618 139° Southeast  Level Estimated
01:12AM 9.8792 -76.9733 139° Southeast  Level Estimated
01:13AM 9.7806 -76.8850 139° Southeast  Level Estimated
01:14AM 9.6820 -76.7967 139° Southeast  Level Estimated
01:15AM 9.5833 -76.7084 139° Southeast  Level Estimated
01:16AM 9.4846 -76.6202 139° Southeast  Level Estimated
01:17AM 9.3859 -76.5321 139° Southeast  Level Estimated
01:18AM 9.2872 -76.4440 139° Southeast  Level Estimated
01:19AM 9.1885 -76.3559 139° Southeast  Level Estimated
01:20AM 9.0897 -76.2679 139° Southeast  Level Estimated
01:21AM 8.9909 -76.1800 139° Southeast  Level Estimated
01:22AM 8.8921 -76.0920 139° Southeast  Level Estimated
01:23AM 8.7933 -76.0042 139° Southeast  Level Estimated
01:24AM 8.6944 -75.9164 139° Southeast  Level Estimated
01:25AM 8.5955 -75.8286 139° Southeast  Level Estimated
01:26AM 8.4966 -75.7409 139° Southeast  Level Estimated
01:27AM 8.3977 -75.6532 139° Southeast  Level Estimated
01:28AM 8.2988 -75.5656 139° Southeast  Level Estimated
01:29AM 8.1999 -75.4780 139° Southeast  Level Estimated
01:30AM 8.1009 -75.3904 139° Southeast  Level Estimated
01:31AM 8.0019 -75.3029 139° Southeast  Level Estimated
01:32AM 7.9029 -75.2155 139° Southeast  Level Estimated
01:33AM 7.8039 -75.1281 139° Southeast  Level Estimated
01:34AM 7.7048 -75.0407 139° Southeast  Level Estimated
01:35AM 7.6058 -74.9534 139° Southeast  Level Estimated
01:36AM 7.5067 -74.8661 139° Southeast  Level Estimated
01:37AM 7.4076 -74.7788 139° Southeast  Level Estimated
01:38AM 7.3085 -74.6916 139° Southeast  Level Estimated
01:39AM 7.2094 -74.6044 139° Southeast  Level Estimated
01:40AM 7.1102 -74.5173 139° Southeast  Level Estimated
01:41AM 7.0111 -74.4302 139° Southeast  Level Estimated
01:42AM 6.9119 -74.3431 139° Southeast  Level Estimated
01:42AM 6.8410 -74.1530 139° Southeast 484 557 37,000  Level FlightAware
01:43AM 6.8127 -74.2561 139° Southeast  Level Estimated
01:43AM 6.7630 -74.0980 145° Southeast 483 556 37,000  Level FlightAware
01:44AM 6.6870 -74.0440 145° Southeast 483 556 37,000  Level FlightAware
01:44AM 6.6070 -73.9880 145° Southeast 483 556 37,000  Level FlightAware
01:45AM 6.5320 -73.9350 145° Southeast 483 556 37,000  Level FlightAware
01:46AM 6.4520 -73.8790 145° Southeast 484 557 37,000  Level FlightAware
01:47AM 6.3820 -73.8290 145° Southeast 485 558 37,000  Level FlightAware
01:47AM 6.3020 -73.7720 145° Southeast 485 558 37,000  Level FlightAware
01:48AM 6.2190 -73.7140 145° Southeast 485 558 37,000  Level FlightAware
01:49AM 6.1460 -73.6630 145° Southeast 486 559 37,000  Level FlightAware
01:49AM 6.0650 -73.6050 145° Southeast 485 558 37,000  Level FlightAware
01:50AM 5.9900 -73.5530 145° Southeast 486 559 37,000  Level FlightAware
01:51AM 5.9140 -73.5000 145° Southeast 485 558 37,000  Level FlightAware
01:51AM 5.8340 -73.4430 145° Southeast 486 559 37,000  Level FlightAware
01:52AM 5.7680 -73.3970 145° Southeast 485 558 37,000  Level FlightAware
01:53AM 5.6760 -73.3320 145° Southeast 483 556 37,000  Level FlightAware
01:54AM 5.6070 -73.2830 145° Southeast 482 555 37,000  Level FlightAware
01:54AM 5.5260 -73.2270 145° Southeast 482 555 37,000  Level FlightAware
01:55AM 5.4530 -73.1750 145° Southeast 480 552 37,000  Level FlightAware
01:56AM 5.3750 -73.1200 145° Southeast 480 552 37,000  Level FlightAware
01:56AM 5.2980 -73.0670 146° Southeast 478 550 37,000  Level FlightAware
01:57AM 5.2200 -73.0120 145° Southeast 478 550 37,000  Level FlightAware
01:58AM 5.1430 -72.9580 145° Southeast 476 548 37,000  Level FlightAware
01:58AM 5.0670 -72.9050 145° Southeast 475 547 37,000  Level FlightAware
02:00AM 4.9500 -72.8210 144° Southeast 474 545 37,000  Level FlightAware
02:00AM 4.8990 -72.7830 143° Southeast 474 545 37,000  Level FlightAware
02:01AM 4.8250 -72.7300 144° Southeast 474 545 37,000  Level FlightAware
02:02AM 4.7740 -72.6920 143° Southeast 474 545 37,000  Level FlightAware
02:02AM 4.7020 -72.6390 144° Southeast 474 545 37,000  Level FlightAware
02:03AM 4.6430 -72.5970 145° Southeast 474 545 37,000  Level FlightAware
02:04AM 4.5690 -72.5430 144° Southeast 474 545 37,000  Level FlightAware
02:05AM 4.5130 -72.5020 144° Southeast 474 545 37,000  Level FlightAware
02:05AM 4.4590 -72.4620 144° Southeast 474 545 37,000  Level FlightAware
02:06AM 4.3830 -72.4070 144° Southeast 474 545 37,000  Level FlightAware
02:07AM 4.3260 -72.3660 144° Southeast 474 545 37,000  Level FlightAware
02:07AM 4.2600 -72.3170 143° Southeast 474 545 37,000  Level FlightAware
02:08AM 4.2050 -72.2780 145° Southeast 474 545 37,000  Level FlightAware
02:09AM 4.1310 -72.2240 144° Southeast 474 545 37,000  Level FlightAware
02:11AM 3.9193 -72.1234 145° Southeast  Level FlightAware Approximate
02:12AM 3.8117 -72.0475 145° Southeast  Level FlightAware Approximate
02:13AM 3.7042 -71.9716 145° Southeast  Level FlightAware Approximate
02:14AM 3.5966 -71.8958 145° Southeast  Level FlightAware Approximate
02:15AM 3.4890 -71.8199 145° Southeast  Level FlightAware Approximate
02:16AM 3.3814 -71.7441 145° Southeast  Level FlightAware Approximate
02:17AM 3.2738 -71.6682 145° Southeast  Level FlightAware Approximate
02:18AM 3.1663 -71.5924 145° Southeast  Level FlightAware Approximate
02:19AM 3.0587 -71.5166 145° Southeast  Level FlightAware Approximate
02:20AM 2.9516 -71.4413 145° Southeast  Level FlightAware Approximate
02:21AM 2.8446 -71.3659 145° Southeast  Level FlightAware Approximate
02:22AM 2.7375 -71.2906 145° Southeast  Level FlightAware Approximate
02:23AM 2.6305 -71.2152 145° Southeast  Level FlightAware Approximate
02:24AM 2.5234 -71.1399 145° Southeast  Level FlightAware Approximate
02:25AM 2.4164 -71.0646 145° Southeast  Level FlightAware Approximate
02:26AM 2.3093 -70.9893 145° Southeast  Level FlightAware Approximate
02:27AM 2.2022 -70.9140 145° Southeast  Level FlightAware Approximate
02:28AM 2.0951 -70.8388 145° Southeast  Level FlightAware Approximate
02:29AM 1.9881 -70.7635 145° Southeast  Level FlightAware Approximate
02:30AM 1.8810 -70.6883 145° Southeast  Level FlightAware Approximate
02:31AM 1.7739 -70.6130 145° Southeast  Level FlightAware Approximate
02:32AM 1.6668 -70.5378 145° Southeast  Level FlightAware Approximate
02:33AM 1.5597 -70.4626 145° Southeast  Level FlightAware Approximate
02:34AM 1.4526 -70.3873 145° Southeast  Level FlightAware Approximate
02:35AM 1.3455 -70.3121 145° Southeast  Level FlightAware Approximate
02:36AM 1.2384 -70.2369 145° Southeast  Level FlightAware Approximate
02:37AM 1.1402 -70.1504 138° Southeast  Level FlightAware Approximate
02:38AM 1.0425 -70.0634 138° Southeast  Level FlightAware Approximate
02:39AM 0.9448 -69.9764 138° Southeast  Level FlightAware Approximate
02:40AM 0.8470 -69.8894 138° Southeast  Level FlightAware Approximate
02:41AM 0.7493 -69.8024 138° Southeast  Level FlightAware Approximate
02:42AM 0.6515 -69.7154 138° Southeast  Level FlightAware Approximate
02:43AM 0.5538 -69.6284 138° Southeast  Level FlightAware Approximate
02:44AM 0.4560 -69.5414 138° Southeast  Level FlightAware Approximate
02:45AM 0.3583 -69.4544 138° Southeast  Level FlightAware Approximate
02:46AM 0.2605 -69.3674 138° Southeast  Level FlightAware Approximate
02:47AM 0.1628 -69.2804 138° Southeast  Level FlightAware Approximate
02:48AM 0.0650 -69.1934 138° Southeast  Level FlightAware Approximate
02:49AM -0.0327 -69.1064 138° Southeast  Level FlightAware Approximate
02:50AM -0.1305 -69.0194 138° Southeast  Level FlightAware Approximate
02:51AM -0.2282 -68.9324 138° Southeast  Level FlightAware Approximate
02:52AM -0.3260 -68.8455 138° Southeast  Level FlightAware Approximate
02:53AM -0.4237 -68.7585 138° Southeast  Level FlightAware Approximate
02:54AM -0.5215 -68.6715 138° Southeast  Level FlightAware Approximate
02:55AM -0.6192 -68.5845 138° Southeast  Level FlightAware Approximate
02:56AM -0.7170 -68.4975 138° Southeast  Level FlightAware Approximate
02:57AM -0.8147 -68.4105 138° Southeast  Level FlightAware Approximate
02:58AM -0.9125 -68.3234 138° Southeast  Level FlightAware Approximate
02:59AM -1.0102 -68.2364 138° Southeast  Level FlightAware Approximate
03:00AM -1.1079 -68.1494 138° Southeast  Level FlightAware Approximate
03:01AM -1.2057 -68.0624 138° Southeast  Level FlightAware Approximate
03:02AM -1.3034 -67.9753 138° Southeast  Level FlightAware Approximate
03:03AM -1.4011 -67.8883 138° Southeast  Level FlightAware Approximate
03:04AM -1.4989 -67.8012 138° Southeast  Level FlightAware Approximate
03:05AM -1.5966 -67.7142 138° Southeast  Level FlightAware Approximate
03:06AM -1.6943 -67.6271 138° Southeast  Level FlightAware Approximate
03:07AM -1.7920 -67.5401 138° Southeast  Level FlightAware Approximate
03:08AM -1.8897 -67.4530 138° Southeast  Level FlightAware Approximate
03:09AM -1.9875 -67.3659 138° Southeast  Level FlightAware Approximate
03:10AM -2.0852 -67.2788 138° Southeast  Level FlightAware Approximate
03:11AM -2.1828 -67.1917 138° Southeast  Level FlightAware Approximate
03:12AM -2.2805 -67.1046 138° Southeast  Level FlightAware Approximate
03:13AM -2.3782 -67.0174 138° Southeast  Level FlightAware Approximate
03:14AM -2.4759 -66.9303 138° Southeast  Level FlightAware Approximate
03:15AM -2.5736 -66.8431 138° Southeast  Level FlightAware Approximate
03:16AM -2.6713 -66.7560 138° Southeast  Level FlightAware Approximate
03:17AM -2.7689 -66.6688 138° Southeast  Level FlightAware Approximate
03:18AM -2.8666 -66.5816 138° Southeast  Level FlightAware Approximate
03:19AM -2.9642 -66.4943 138° Southeast  Level FlightAware Approximate
03:20AM -3.0619 -66.4071 138° Southeast  Level FlightAware Approximate
03:21AM -3.1595 -66.3199 138° Southeast  Level FlightAware Approximate
03:22AM -3.2571 -66.2326 138° Southeast  Level FlightAware Approximate
03:23AM -3.3548 -66.1453 138° Southeast  Level FlightAware Approximate
03:24AM -3.4524 -66.0580 138° Southeast  Level FlightAware Approximate
03:25AM -3.5500 -65.9707 138° Southeast  Level FlightAware Approximate
03:26AM -3.6476 -65.8834 138° Southeast  Level FlightAware Approximate
03:27AM -3.7452 -65.7960 138° Southeast  Level FlightAware Approximate
03:28AM -3.8428 -65.7086 138° Southeast  Level FlightAware Approximate
03:29AM -3.9403 -65.6212 138° Southeast  Level FlightAware Approximate
03:30AM -4.0379 -65.5338 138° Southeast  Level FlightAware Approximate
03:31AM -4.1354 -65.4464 138° Southeast  Level FlightAware Approximate
03:32AM -4.2330 -65.3589 138° Southeast  Level FlightAware Approximate
03:33AM -4.3305 -65.2715 138° Southeast  Level FlightAware Approximate
03:34AM -4.4280 -65.1840 138° Southeast  Level FlightAware Approximate
03:35AM -4.5255 -65.0964 138° Southeast  Level FlightAware Approximate
03:36AM -4.6230 -65.0089 138° Southeast  Level FlightAware Approximate
03:37AM -4.7205 -64.9213 138° Southeast  Level FlightAware Approximate
03:38AM -4.8180 -64.8337 138° Southeast  Level FlightAware Approximate
03:39AM -4.9155 -64.7461 138° Southeast  Level FlightAware Approximate
03:40AM -5.0129 -64.6584 138° Southeast  Level FlightAware Approximate
03:41AM -5.1104 -64.5708 138° Southeast  Level FlightAware Approximate
03:42AM -5.2078 -64.4831 138° Southeast  Level FlightAware Approximate
03:43AM -5.3053 -64.3953 138° Southeast  Level FlightAware Approximate
03:44AM -5.4027 -64.3076 138° Southeast  Level FlightAware Approximate
03:45AM -5.5001 -64.2198 138° Southeast  Level FlightAware Approximate
03:46AM -5.5974 -64.1320 138° Southeast  Level FlightAware Approximate
03:47AM -5.6948 -64.0442 138° Southeast  Level FlightAware Approximate
03:48AM -5.7922 -63.9563 138° Southeast  Level FlightAware Approximate
03:49AM -5.8895 -63.8684 138° Southeast  Level FlightAware Approximate
03:50AM -5.9869 -63.7805 138° Southeast  Level FlightAware Approximate
03:51AM -6.0842 -63.6925 138° Southeast  Level FlightAware Approximate
03:52AM -6.1815 -63.6045 138° Southeast  Level FlightAware Approximate
03:53AM -6.2788 -63.5165 138° Southeast  Level FlightAware Approximate
03:54AM -6.3760 -63.4284 138° Southeast  Level FlightAware Approximate
03:55AM -6.4733 -63.3403 138° Southeast  Level FlightAware Approximate
03:56AM -6.5705 -63.2522 138° Southeast  Level FlightAware Approximate
03:57AM -6.6678 -63.1640 138° Southeast  Level FlightAware Approximate
03:58AM -6.7650 -63.0758 138° Southeast  Level FlightAware Approximate
03:59AM -6.8624 -62.9874 138° Southeast  Level FlightAware Approximate
04:00AM -6.9597 -62.8990 138° Southeast  Level FlightAware Approximate
04:01AM -7.0571 -62.8106 138° Southeast  Level FlightAware Approximate
04:02AM -7.1544 -62.7221 138° Southeast  Level FlightAware Approximate
04:03AM -7.2517 -62.6335 138° Southeast  Level FlightAware Approximate
04:04AM -7.3490 -62.5449 138° Southeast  Level FlightAware Approximate
04:05AM -7.4462 -62.4563 138° Southeast  Level FlightAware Approximate
04:06AM -7.5435 -62.3677 138° Southeast  Level FlightAware Approximate
04:07AM -7.6407 -62.2790 138° Southeast  Level FlightAware Approximate
04:08AM -7.7379 -62.1903 138° Southeast  Level FlightAware Approximate
04:09AM -7.8351 -62.1015 138° Southeast  Level FlightAware Approximate
04:10AM -7.9323 -62.0127 138° Southeast  Level FlightAware Approximate
04:11AM -8.0295 -61.9238 138° Southeast  Level FlightAware Approximate
04:12AM -8.1264 -61.8351 138° Southeast  Level FlightAware Approximate
04:13AM -8.2234 -61.7463 138° Southeast  Level FlightAware Approximate
04:14AM -8.3203 -61.6575 138° Southeast  Level FlightAware Approximate
04:15AM -8.4172 -61.5686 138° Southeast  Level FlightAware Approximate
04:16AM -8.5141 -61.4797 138° Southeast  Level FlightAware Approximate
04:17AM -8.6110 -61.3907 138° Southeast  Level FlightAware Approximate
04:18AM -8.7078 -61.3017 138° Southeast  Level FlightAware Approximate
04:19AM -8.8047 -61.2127 138° Southeast  Level FlightAware Approximate
04:20AM -8.9015 -61.1236 138° Southeast  Level FlightAware Approximate
04:21AM -8.9983 -61.0344 138° Southeast  Level FlightAware Approximate
04:22AM -9.0950 -60.9452 138° Southeast  Level FlightAware Approximate
04:23AM -9.1918 -60.8560 138° Southeast  Level FlightAware Approximate
04:24AM -9.2885 -60.7667 138° Southeast  Level FlightAware Approximate
04:25AM -9.3852 -60.6773 138° Southeast  Level FlightAware Approximate
04:26AM -9.4819 -60.5880 138° Southeast  Level FlightAware Approximate
04:27AM -9.5785 -60.4985 138° Southeast  Level FlightAware Approximate
04:28AM -9.6751 -60.4090 138° Southeast  Level FlightAware Approximate
04:29AM -9.7718 -60.3195 138° Southeast  Level FlightAware Approximate
04:30AM -9.8684 -60.2299 138° Southeast  Level FlightAware Approximate
04:31AM -9.9649 -60.1402 138° Southeast  Level FlightAware Approximate
04:32AM -10.0615 -60.0505 138° Southeast  Level FlightAware Approximate
04:33AM -10.1580 -59.9608 138° Southeast  Level FlightAware Approximate
04:34AM -10.2544 -59.8709 138° Southeast  Level FlightAware Approximate
04:35AM -10.3509 -59.7811 138° Southeast  Level FlightAware Approximate
04:36AM -10.4473 -59.6912 137° Southeast  Level FlightAware Approximate
04:37AM -10.5438 -59.6012 137° Southeast  Level FlightAware Approximate
04:38AM -10.6402 -59.5112 137° Southeast  Level FlightAware Approximate
04:39AM -10.7365 -59.4211 137° Southeast  Level FlightAware Approximate
04:40AM -10.8329 -59.3309 137° Southeast  Level FlightAware Approximate
04:41AM -10.9292 -59.2407 137° Southeast  Level FlightAware Approximate
04:42AM -11.0254 -59.1504 137° Southeast  Level FlightAware Approximate
04:43AM -11.1217 -59.0601 137° Southeast  Level FlightAware Approximate
04:44AM -11.2179 -58.9697 137° Southeast  Level FlightAware Approximate
04:45AM -11.3141 -58.8793 137° Southeast  Level FlightAware Approximate
04:46AM -11.4103 -58.7888 137° Southeast  Level FlightAware Approximate
04:47AM -11.5065 -58.6982 137° Southeast  Level FlightAware Approximate
04:48AM -11.6026 -58.6076 137° Southeast  Level FlightAware Approximate
04:49AM -11.6987 -58.5169 137° Southeast  Level FlightAware Approximate
04:50AM -11.7947 -58.4262 137° Southeast  Level FlightAware Approximate
04:51AM -11.8908 -58.3353 137° Southeast  Level FlightAware Approximate
04:52AM -11.9868 -58.2445 137° Southeast  Level FlightAware Approximate
04:53AM -12.0828 -58.1535 137° Southeast  Level FlightAware Approximate
04:54AM -12.1787 -58.0625 137° Southeast  Level FlightAware Approximate
04:55AM -12.2746 -57.9714 137° Southeast  Level FlightAware Approximate
04:56AM -12.3705 -57.8803 137° Southeast  Level FlightAware Approximate
04:57AM -12.4664 -57.7891 137° Southeast  Level FlightAware Approximate
04:58AM -12.5622 -57.6978 137° Southeast  Level FlightAware Approximate
04:59AM -12.6580 -57.6065 137° Southeast  Level FlightAware Approximate
05:00AM -12.7538 -57.5150 137° Southeast  Level FlightAware Approximate
05:01AM -12.8495 -57.4236 137° Southeast  Level FlightAware Approximate
05:02AM -12.9452 -57.3320 137° Southeast  Level FlightAware Approximate
05:03AM -13.0409 -57.2404 137° Southeast  Level FlightAware Approximate
05:04AM -13.1365 -57.1487 137° Southeast  Level FlightAware Approximate
05:05AM -13.2321 -57.0569 137° Southeast  Level FlightAware Approximate
05:06AM -13.3277 -56.9651 137° Southeast  Level FlightAware Approximate
05:07AM -13.4232 -56.8732 137° Southeast  Level FlightAware Approximate
05:08AM -13.5187 -56.7812 137° Southeast  Level FlightAware Approximate
05:09AM -13.6142 -56.6892 137° Southeast  Level FlightAware Approximate
05:10AM -13.7096 -56.5970 137° Southeast  Level FlightAware Approximate
05:11AM -13.8050 -56.5048 137° Southeast  Level FlightAware Approximate
05:12AM -13.9004 -56.4125 137° Southeast  Level FlightAware Approximate
05:13AM -13.9957 -56.3202 137° Southeast  Level FlightAware Approximate
05:14AM -14.0910 -56.2277 137° Southeast  Level FlightAware Approximate
05:15AM -14.1863 -56.1352 137° Southeast  Level FlightAware Approximate
05:16AM -14.2815 -56.0426 137° Southeast  Level FlightAware Approximate
05:17AM -14.3767 -55.9500 137° Southeast  Level FlightAware Approximate
05:18AM -14.4719 -55.8572 137° Southeast  Level FlightAware Approximate
05:19AM -14.5670 -55.7644 137° Southeast  Level FlightAware Approximate
05:20AM -14.6621 -55.6715 137° Southeast  Level FlightAware Approximate
05:21AM -14.7571 -55.5785 137° Southeast  Level FlightAware Approximate
05:22AM -14.8521 -55.4854 137° Southeast  Level FlightAware Approximate
05:23AM -14.9471 -55.3923 137° Southeast  Level FlightAware Approximate
05:24AM -15.0420 -55.2990 137° Southeast  Level FlightAware Approximate
05:25AM -15.1369 -55.2057 136° Southeast  Level FlightAware Approximate
05:26AM -15.2318 -55.1123 136° Southeast  Level FlightAware Approximate
05:27AM -15.3266 -55.0188 136° Southeast  Level FlightAware Approximate
05:28AM -15.4214 -54.9253 136° Southeast  Level FlightAware Approximate
05:29AM -15.5161 -54.8316 136° Southeast  Level FlightAware Approximate
05:30AM -15.6108 -54.7379 136° Southeast  Level FlightAware Approximate
05:31AM -15.7055 -54.6441 136° Southeast  Level FlightAware Approximate
05:32AM -15.8001 -54.5501 136° Southeast  Level FlightAware Approximate
05:33AM -15.8947 -54.4561 136° Southeast  Level FlightAware Approximate
05:34AM -15.9892 -54.3620 136° Southeast  Level FlightAware Approximate
05:35AM -16.0837 -54.2679 136° Southeast  Level FlightAware Approximate
05:36AM -16.1782 -54.1736 136° Southeast  Level FlightAware Approximate
05:37AM -16.2726 -54.0792 136° Southeast  Level FlightAware Approximate
05:38AM -16.3670 -53.9848 136° Southeast  Level FlightAware Approximate
05:39AM -16.4613 -53.8903 136° Southeast  Level FlightAware Approximate
05:40AM -16.5556 -53.7956 136° Southeast  Level FlightAware Approximate
05:41AM -16.6499 -53.7009 136° Southeast  Level FlightAware Approximate
05:42AM -16.7441 -53.6061 136° Southeast  Level FlightAware Approximate
05:43AM -16.8382 -53.5112 136° Southeast  Level FlightAware Approximate
05:44AM -16.9324 -53.4162 136° Southeast  Level FlightAware Approximate
05:45AM -17.0264 -53.3211 136° Southeast  Level FlightAware Approximate
05:46AM -17.1205 -53.2259 136° Southeast  Level FlightAware Approximate
05:47AM -17.2145 -53.1306 136° Southeast  Level FlightAware Approximate
05:48AM -17.3084 -53.0352 136° Southeast  Level FlightAware Approximate
05:49AM -17.4023 -52.9397 136° Southeast  Level FlightAware Approximate
05:50AM -17.4961 -52.8441 136° Southeast  Level FlightAware Approximate
05:51AM -17.5899 -52.7484 136° Southeast  Level FlightAware Approximate
05:52AM -17.6837 -52.6526 136° Southeast  Level FlightAware Approximate
05:53AM -17.7774 -52.5568 136° Southeast  Level FlightAware Approximate
05:54AM -17.8711 -52.4608 136° Southeast  Level FlightAware Approximate
05:55AM -17.9647 -52.3647 136° Southeast  Level FlightAware Approximate
05:56AM -18.0583 -52.2685 136° Southeast  Level FlightAware Approximate
05:57AM -18.1518 -52.1722 136° Southeast  Level FlightAware Approximate
05:57AM -19.0360 -50.6310 136° Southeast 507 583 39,000  Level FlightAware
05:58AM -18.2453 -52.0758 136° Southeast  Level FlightAware Approximate
05:58AM -19.0870 -50.5750 134° Southeast 507 583 39,000  Level FlightAware
05:59AM -19.1550 -50.4980 133° Southeast 507 583 39,000  Level FlightAware
05:59AM -19.2430 -50.4050 135° Southeast 509 586 39,000  Level FlightAware
06:00AM -19.3030 -50.3380 134° Southeast 509 586 39,000  Level FlightAware
06:01AM -19.3660 -50.2700 134° Southeast 510 587 39,000  Level FlightAware
06:02AM -19.4650 -50.1620 134° Southeast 512 589 39,000  Level FlightAware
06:02AM -19.5400 -50.0790 134° Southeast 512 589 39,000  Level FlightAware
06:03AM -19.6020 -50.0100 134° Southeast 511 588 39,000  Level FlightAware
06:04AM -19.6680 -49.9380 134° Southeast 511 588 39,000  Level FlightAware
06:05AM -19.7550 -49.8430 134° Southeast 512 589 39,000  Level FlightAware
06:05AM -19.8320 -49.7590 134° Southeast 512 589 39,000  Level FlightAware
06:06AM -19.9030 -49.6810 134° Southeast 512 589 39,000  Level FlightAware
06:07AM -19.9780 -49.5990 134° Southeast 512 589 39,000  Level FlightAware
06:08AM -20.0440 -49.5260 134° Southeast 512 589 39,000  Level FlightAware
06:08AM -20.1110 -49.4530 134° Southeast 512 589 39,000  Level FlightAware
06:09AM -20.1860 -49.3700 134° Southeast 513 590 39,000  Level FlightAware
06:09AM -20.2320 -49.3190 134° Southeast 514 592 39,000  Level FlightAware
06:10AM -20.2990 -49.2460 134° Southeast 515 593 39,000  Level FlightAware
06:11AM -20.3950 -49.1390 134° Southeast 515 593 39,000  Level FlightAware
06:12AM -20.4570 -49.0700 134° Southeast 514 592 39,000  Level FlightAware
06:12AM -20.5240 -48.9960 134° Southeast 514 592 39,000  Level FlightAware
06:13AM -20.5970 -48.9160 134° Southeast 513 590 39,000  Level FlightAware
06:14AM -20.6620 -48.8440 134° Southeast 514 592 39,000  Level FlightAware
06:15AM -20.7340 -48.7620 133° Southeast 514 592 39,000  Level FlightAware
06:15AM -20.8000 -48.6890 134° Southeast 516 594 39,000  Level FlightAware
06:16AM -20.8650 -48.6150 133° Southeast 517 595 39,000  Level FlightAware
06:17AM -20.9380 -48.5340 134° Southeast 516 594 39,000  Level FlightAware
06:17AM -21.0070 -48.4560 133° Southeast 515 593 39,000  Level FlightAware
06:18AM -21.0780 -48.3910 139° Southeast 508 585 39,000  Level FlightAware
06:19AM -21.1560 -48.3230 141° Southeast 506 582 39,000  Level FlightAware
06:19AM -21.2380 -48.2560 143° Southeast 505 581 39,000  Level FlightAware
06:20AM -21.3360 -48.1720 141° Southeast 506 582 39,000  Level FlightAware
06:21AM -21.4420 -48.0810 141° Southeast 504 580 39,000  Level FlightAware
06:22AM -21.4900 -48.0400 142° Southeast 504 580 39,000  Level FlightAware
06:22AM -21.5660 -47.9740 141° Southeast 502 578 39,000 -600 Level FlightAware
06:23AM -21.6420 -47.9090 142° Southeast 501 577 38,200 -1,440 Descending FlightAware
06:24AM -21.7220 -47.8400 141° Southeast 507 583 37,000 -1,500 Descending FlightAware
06:24AM -21.7990 -47.7740 141° Southeast 509 586 36,100 -1,860 Descending FlightAware
06:25AM -21.8770 -47.7060 141° Southeast 512 589 34,400 -2,460 Descending FlightAware
06:26AM -21.9510 -47.6420 141° Southeast 510 587 32,800 -2,340 Descending FlightAware
06:27AM -22.0280 -47.5760 142° Southeast 504 580 31,200 -2,220 Descending FlightAware
06:27AM -22.1070 -47.5070 141° Southeast 498 573 29,700 -2,160 Descending FlightAware
06:28AM -22.1750 -47.4480 141° Southeast 493 567 28,300 -2,160 Descending FlightAware
06:29AM -22.2530 -47.3800 141° Southeast 487 560 26,800 -2,100 Descending FlightAware
06:29AM -22.3290 -47.3140 141° Southeast 481 554 25,300 -2,100 Descending FlightAware
06:30AM -22.3960 -47.2550 141° Southeast 474 545 23,900 -2,100 Descending FlightAware
06:31AM -22.4700 -47.1910 141° Southeast 469 540 22,500 -2,040 Descending FlightAware
06:31AM -22.5410 -47.1290 141° Southeast 461 531 21,000 -2,040 Descending FlightAware
06:32AM -22.6020 -47.0890 149° Southeast 439 505 19,900 -2,040 Descending FlightAware
06:33AM -22.6880 -47.0500 157° South 421 484 18,300 -1,980 Descending FlightAware
06:34AM -22.7660 -47.0190 160° South 397 457 17,000 -1,860 Descending FlightAware
06:34AM -22.8160 -46.9980 159° South 372 428 16,100 -1,800 Descending FlightAware
06:35AM -22.8810 -46.9700 158° South 357 411 14,900 -1,920 Descending FlightAware
06:35AM -22.9340 -46.9480 159° South 356 410 13,700 -1,920 Descending FlightAware
06:36AM -22.9950 -46.9220 159° South 318 366 12,500 -1,680 Descending FlightAware
06:37AM -23.0520 -46.8980 159° South 289 333 11,300 -1,620 Descending FlightAware
06:37AM -23.1040 -46.8760 159° South 296 341 10,200 -1,380 Descending FlightAware
06:38AM -23.1400 -46.8610 159° South 287 330 9,700 -1,080 Descending FlightAware
06:38AM -23.1550 -46.8550 160° South 285 328 9,500 -1,320 Descending FlightAware
06:39AM -23.1930 -46.8390 159° South 283 326 8,800 -1,260 Descending FlightAware
06:39AM -23.2270 -46.8240 158° South 280 322 8,300 -1,320 Descending FlightAware
06:40AM -23.2610 -46.8100 159° South 282 325 7,600 -1,080 Descending FlightAware
06:40AM -23.2940 -46.7960 159° South 265 305 7,300 -540 Descending FlightAware
06:40AM -23.3270 -46.7820 159° South 248 285 7,100 -480 Descending FlightAware
06:41AM -23.3520 -46.7710 158° South 230 265 6,900 -600 Descending FlightAware
06:41AM -23.3780 -46.7570 154° Southeast 226 260 6,600 -780 Descending FlightAware
06:42AM -23.3870 -46.7490 141° Southeast 227 261 6,400 -900 Descending FlightAware
06:42AM -23.4110 -46.7260 139° Southeast 224 258 6,000 -960 Descending FlightAware
06:43AM -23.4330 -46.7060 140° Southeast 216 249 5,500 -900 Descending FlightAware
06:43AM -23.4510 -46.6840 132° Southeast 210 242 5,200 -480 Descending FlightAware
06:43AM -23.4570 -46.6700 115° Southeast 201 231 5,200  Level FlightAware
06:44AM -23.4650 -46.6530 117° Southeast 201 231 5,200 -420 Level FlightAware
06:44AM -23.4740 -46.6310 114° Southeast 186 214 4,900 -840 Descending FlightAware
06:44AM -23.4740 -46.6250 90° East 181 208 4,800 -1,200 Descending FlightAware
06:44AM -23.4710 -46.6070 80° East 174 200 4,400 -960 Descending FlightAware
06:45AM -23.4670 -46.5910 75° East 162 186 4,100 -840 Descending FlightAware
06:45AM -23.4610 -46.5680 74° East 142 163 3,700 -840 Descending FlightAware
06:46AM -23.4570 -46.5530 74° East 141 162 3,400 -720 Descending FlightAware
06:46AM -23.4510 -46.5330 72° East 145 167 3,100 -780 Descending FlightAware
06:47AM -23.4460 -46.5140 74° East 149 171 2,700 -900 Descending FlightAware
06:47AM -23.4400 -46.4920 73° East 145 167 2,300 -840 Descending FlightAware
06:47AM -23.4370 -46.4810 73° East 146 168 2,100 -840 Descending FlightAware
06:48AM -23.4340 -46.4700 73° East 72 83 -5,280 Descending FlightAware
06:48AM -23.4320 -46.4620 75° East 72 83  Level FlightAware